sensor_id;sensor_type;location;lat;lon;timestamp;pressure;altitude;pressure_sealevel;temperature;humidity
1616;BME280;801;47.982;7.810;2023-04-25T00:01:15;98118.84;;;10.61;100.00
1616;BME280;801;47.982;7.810;2023-04-25T00:03:41;98122.38;;;10.41;100.00
1616;BME280;801;47.982;7.810;2023-04-25T00:06:08;98120.72;;;10.45;100.00
1616;BME280;801;47.982;7.810;2023-04-25T00:08:34;98128.00;;;10.49;100.00
1616;BME280;801;47.982;7.810;2023-04-25T00:11:03;98117.50;;;10.27;100.00
1616;BME280;801;47.982;7.810;2023-04-25T00:13:30;98121.00;;;10.28;100.00
1616;BME280;801;47.982;7.810;2023-04-25T00:15:56;98116.97;;;10.10;100.00
1616;BME280;801;47.982;7.810;2023-04-25T00:18:23;98120.47;;;10.21;100.00
1616;BME280;801;47.982;7.810;2023-04-25T00:20:50;98125.81;;;10.15;100.00
1616;BME280;801;47.982;7.810;2023-04-25T00:23:17;98120.72;;;10.24;100.00
1616;BME280;801;47.982;7.810;2023-04-25T00:25:43;98130.41;;;10.30;100.00
1616;BME280;801;47.982;7.810;2023-04-25T00:28:12;98129.84;;;10.23;100.00
1616;BME280;801;47.982;7.810;2023-04-25T00:30:39;98127.44;;;10.22;100.00
1616;BME280;801;47.982;7.810;2023-04-25T00:33:05;98129.56;;;10.19;100.00
1616;BME280;801;47.982;7.810;2023-04-25T00:35:32;98122.84;;;10.22;100.00
1616;BME280;801;47.982;7.810;2023-04-25T00:37:59;98121.00;;;10.33;100.00
1616;BME280;801;47.982;7.810;2023-04-25T00:40:26;98108.38;;;10.23;100.00
1616;BME280;801;47.982;7.810;2023-04-25T00:42:53;98101.66;;;10.15;100.00
1616;BME280;801;47.982;7.810;2023-04-25T00:45:21;98097.91;;;10.16;100.00
1616;BME280;801;47.982;7.810;2023-04-25T00:47:47;98094.41;;;10.21;100.00
1616;BME280;801;47.982;7.810;2023-04-25T00:50:13;98101.66;;;10.26;100.00
1616;BME280;801;47.982;7.810;2023-04-25T00:52:42;98102.75;;;10.35;100.00
1616;BME280;801;47.982;7.810;2023-04-25T00:55:10;98108.09;;;10.25;100.00
1616;BME280;801;47.982;7.810;2023-04-25T00:57:37;98103.28;;;9.96;100.00
1616;BME280;801;47.982;7.810;2023-04-25T01:00:06;98105.41;;;10.25;100.00
1616;BME280;801;47.982;7.810;2023-04-25T01:02:36;98104.06;;;10.17;100.00
1616;BME280;801;47.982;7.810;2023-04-25T01:05:04;98091.47;;;10.12;100.00
1616;BME280;801;47.982;7.810;2023-04-25T01:07:30;98084.75;;;10.05;100.00
1616;BME280;801;47.982;7.810;2023-04-25T01:09:57;98079.09;;;9.86;100.00
1616;BME280;801;47.982;7.810;2023-04-25T01:12:24;98080.72;;;10.02;100.00
1616;BME280;801;47.982;7.810;2023-04-25T01:14:52;98084.47;;;10.01;100.00
1616;BME280;801;47.982;7.810;2023-04-25T01:17:19;98076.97;;;10.08;100.00
1616;BME280;801;47.982;7.810;2023-04-25T01:19:47;98075.63;;;10.06;100.00
1616;BME280;801;47.982;7.810;2023-04-25T01:22:15;98074.00;;;10.15;100.00
1616;BME280;801;47.982;7.810;2023-04-25T01:24:42;98072.13;;;10.31;100.00
1616;BME280;801;47.982;7.810;2023-04-25T01:27:09;98074.28;;;10.18;100.00
1616;BME280;801;47.982;7.810;2023-04-25T01:29:36;98066.22;;;10.08;100.00
1616;BME280;801;47.982;7.810;2023-04-25T01:32:03;98068.13;;;10.18;100.00
1616;BME280;801;47.982;7.810;2023-04-25T01:34:30;98065.94;;;10.25;100.00
1616;BME280;801;47.982;7.810;2023-04-25T01:36:59;98068.38;;;10.11;100.00
1616;BME280;801;47.982;7.810;2023-04-25T01:39:27;98067.03;;;10.09;100.00
1616;BME280;801;47.982;7.810;2023-04-25T01:41:54;98058.69;;;10.15;100.00
1616;BME280;801;47.982;7.810;2023-04-25T01:44:21;98063.53;;;10.08;100.00
1616;BME280;801;47.982;7.810;2023-04-25T01:46:47;98069.97;;;10.02;100.00
1616;BME280;801;47.982;7.810;2023-04-25T01:49:14;98067.03;;;9.93;100.00
1616;BME280;801;47.982;7.810;2023-04-25T01:51:40;98065.69;;;10.01;100.00
1616;BME280;801;47.982;7.810;2023-04-25T01:54:07;98061.41;;;9.95;100.00
1616;BME280;801;47.982;7.810;2023-04-25T01:56:38;98066.75;;;10.21;100.00
1616;BME280;801;47.982;7.810;2023-04-25T01:59:05;98060.34;;;10.11;100.00
1616;BME280;801;47.982;7.810;2023-04-25T02:01:31;98053.31;;;10.15;100.00
1616;BME280;801;47.982;7.810;2023-04-25T02:03:58;98048.25;;;9.98;100.00
1616;BME280;801;47.982;7.810;2023-04-25T02:06:24;98060.06;;;10.03;100.00
1616;BME280;801;47.982;7.810;2023-04-25T02:08:51;98049.06;;;10.09;100.00
1616;BME280;801;47.982;7.810;2023-04-25T02:11:17;98052.00;;;10.13;100.00
1616;BME280;801;47.982;7.810;2023-04-25T02:13:45;98055.50;;;9.98;100.00
1616;BME280;801;47.982;7.810;2023-04-25T02:16:12;98048.53;;;10.07;100.00
1616;BME280;801;47.982;7.810;2023-04-25T02:18:38;98047.94;;;10.15;100.00
1616;BME280;801;47.982;7.810;2023-04-25T02:21:05;98054.41;;;10.14;100.00
1616;BME280;801;47.982;7.810;2023-04-25T02:23:32;98053.34;;;10.21;100.00
1616;BME280;801;47.982;7.810;2023-04-25T02:25:58;98050.09;;;10.13;100.00
1616;BME280;801;47.982;7.810;2023-04-25T02:28:25;98055.50;;;10.03;100.00
1616;BME280;801;47.982;7.810;2023-04-25T02:30:53;98052.50;;;10.20;100.00
1616;BME280;801;47.982;7.810;2023-04-25T02:33:20;98054.41;;;10.19;100.00
1616;BME280;801;47.982;7.810;2023-04-25T02:35:46;98058.16;;;10.08;100.00
1616;BME280;801;47.982;7.810;2023-04-25T02:38:13;98049.59;;;10.11;100.00
1616;BME280;801;47.982;7.810;2023-04-25T02:40:39;98048.75;;;10.11;100.00
1616;BME280;801;47.982;7.810;2023-04-25T02:43:06;98040.94;;;10.25;100.00
1616;BME280;801;47.982;7.810;2023-04-25T02:45:33;98036.41;;;10.15;100.00
1616;BME280;801;47.982;7.810;2023-04-25T02:48:02;98023.81;;;10.05;100.00
1616;BME280;801;47.982;7.810;2023-04-25T02:50:28;98031.31;;;10.13;100.00
1616;BME280;801;47.982;7.810;2023-04-25T02:52:55;98031.88;;;10.05;100.00
1616;BME280;801;47.982;7.810;2023-04-25T02:55:21;98030.00;;;10.01;100.00
1616;BME280;801;47.982;7.810;2023-04-25T02:57:48;98027.84;;;10.03;100.00
1616;BME280;801;47.982;7.810;2023-04-25T03:00:15;98021.13;;;10.05;100.00
1616;BME280;801;47.982;7.810;2023-04-25T03:02:42;98028.63;;;10.13;100.00
1616;BME280;801;47.982;7.810;2023-04-25T03:05:10;98029.72;;;10.07;100.00
1616;BME280;801;47.982;7.810;2023-04-25T03:07:36;98024.09;;;9.98;100.00
1616;BME280;801;47.982;7.810;2023-04-25T03:10:05;98019.47;;;10.25;100.00
1616;BME280;801;47.982;7.810;2023-04-25T03:12:32;98017.91;;;9.93;100.00
1616;BME280;801;47.982;7.810;2023-04-25T03:14:58;98024.88;;;10.04;100.00
1616;BME280;801;47.982;7.810;2023-04-25T03:17:25;98016.56;;;10.06;100.00
1616;BME280;801;47.982;7.810;2023-04-25T03:19:51;98009.31;;;10.01;100.00
1616;BME280;801;47.982;7.810;2023-04-25T03:22:19;98014.13;;;10.04;100.00
1616;BME280;801;47.982;7.810;2023-04-25T03:24:46;97999.13;;;10.03;100.00
1616;BME280;801;47.982;7.810;2023-04-25T03:27:12;97996.69;;;10.07;100.00
1616;BME280;801;47.982;7.810;2023-04-25T03:29:39;97989.16;;;10.09;100.00
1616;BME280;801;47.982;7.810;2023-04-25T03:32:06;97993.72;;;10.13;100.00
1616;BME280;801;47.982;7.810;2023-04-25T03:34:33;97985.69;;;10.08;100.00
1616;BME280;801;47.982;7.810;2023-04-25T03:37:00;97977.91;;;10.12;100.00
1616;BME280;801;47.982;7.810;2023-04-25T03:39:28;97971.75;;;10.11;100.00
1616;BME280;801;47.982;7.810;2023-04-25T03:41:55;97974.41;;;10.11;100.00
1616;BME280;801;47.982;7.810;2023-04-25T03:44:21;97971.47;;;10.03;100.00
1616;BME280;801;47.982;7.810;2023-04-25T03:46:49;97974.97;;;9.98;100.00
1616;BME280;801;47.982;7.810;2023-04-25T03:49:16;97971.75;;;10.11;100.00
1616;BME280;801;47.982;7.810;2023-04-25T03:51:42;97966.13;;;10.03;100.00
1616;BME280;801;47.982;7.810;2023-04-25T03:54:09;97955.66;;;9.91;100.00
1616;BME280;801;47.982;7.810;2023-04-25T03:56:37;97951.91;;;9.92;100.00
1616;BME280;801;47.982;7.810;2023-04-25T03:59:03;97951.34;;;10.05;100.00
1616;BME280;801;47.982;7.810;2023-04-25T04:01:30;97958.88;;;9.98;100.00
1616;BME280;801;47.982;7.810;2023-04-25T04:03:56;97956.22;;;9.83;100.00
1616;BME280;801;47.982;7.810;2023-04-25T04:06:23;97951.91;;;9.82;100.00
1616;BME280;801;47.982;7.810;2023-04-25T04:08:50;97948.69;;;9.80;100.00
1616;BME280;801;47.982;7.810;2023-04-25T04:11:17;97948.72;;;9.69;100.00
1616;BME280;801;47.982;7.810;2023-04-25T04:13:44;97957.28;;;9.92;100.00
1616;BME280;801;47.982;7.810;2023-04-25T04:16:11;97950.84;;;9.88;100.00
1616;BME280;801;47.982;7.810;2023-04-25T04:18:37;97948.69;;;9.90;100.00
1616;BME280;801;47.982;7.810;2023-04-25T04:21:04;97945.75;;;9.91;100.00
1616;BME280;801;47.982;7.810;2023-04-25T04:23:31;97949.19;;;9.97;100.00
1616;BME280;801;47.982;7.810;2023-04-25T04:25:57;97945.97;;;9.95;100.00
1616;BME280;801;47.982;7.810;2023-04-25T04:28:24;97947.88;;;9.94;100.00
1616;BME280;801;47.982;7.810;2023-04-25T04:30:51;97954.56;;;10.02;100.00
1616;BME280;801;47.982;7.810;2023-04-25T04:33:18;97956.72;;;9.95;100.00
1616;BME280;801;47.982;7.810;2023-04-25T04:35:45;97954.00;;;10.00;100.00
1616;BME280;801;47.982;7.810;2023-04-25T04:38:12;97962.63;;;9.92;100.00
1616;BME280;801;47.982;7.810;2023-04-25T04:40:40;97958.31;;;10.01;100.00
1616;BME280;801;47.982;7.810;2023-04-25T04:43:07;97956.94;;;10.09;100.00
1616;BME280;801;47.982;7.810;2023-04-25T04:45:35;97952.38;;;10.14;100.00
1616;BME280;801;47.982;7.810;2023-04-25T04:48:05;97963.72;;;9.96;100.00
1616;BME280;801;47.982;7.810;2023-04-25T04:50:31;97965.56;;;10.01;100.00
1616;BME280;801;47.982;7.810;2023-04-25T04:52:59;97962.56;;;10.17;100.00
1616;BME280;801;47.982;7.810;2023-04-25T04:55:25;97962.81;;;10.26;100.00
1616;BME280;801;47.982;7.810;2023-04-25T04:57:52;97964.72;;;10.15;100.00
1616;BME280;801;47.982;7.810;2023-04-25T05:00:19;97968.50;;;10.14;100.00
1616;BME280;801;47.982;7.810;2023-04-25T05:02:46;97974.38;;;10.22;100.00
1616;BME280;801;47.982;7.810;2023-04-25T05:05:13;97977.06;;;10.22;100.00
1616;BME280;801;47.982;7.810;2023-04-25T05:07:40;97965.75;;;10.25;100.00
1616;BME280;801;47.982;7.810;2023-04-25T05:10:08;97974.38;;;10.22;100.00
1616;BME280;801;47.982;7.810;2023-04-25T05:12:34;97983.78;;;10.09;100.00
1616;BME280;801;47.982;7.810;2023-04-25T05:15:01;97988.13;;;9.94;100.00
1616;BME280;801;47.982;7.810;2023-04-25T05:17:27;98019.28;;;9.65;100.00
1616;BME280;801;47.982;7.810;2023-04-25T05:19:54;97994.50;;;8.96;100.00
1616;BME280;801;47.982;7.810;2023-04-25T05:22:22;98001.22;;;8.99;100.00
1616;BME280;801;47.982;7.810;2023-04-25T05:24:48;98006.91;;;8.44;100.00
1616;BME280;801;47.982;7.810;2023-04-25T05:27:17;98010.59;;;8.38;100.00
1616;BME280;801;47.982;7.810;2023-04-25T05:29:44;98005.03;;;8.07;100.00
1616;BME280;801;47.982;7.810;2023-04-25T05:32:10;98009.38;;;8.14;100.00
1616;BME280;801;47.982;7.810;2023-04-25T05:34:37;98009.19;;;7.88;100.00
1616;BME280;801;47.982;7.810;2023-04-25T05:37:03;97995.59;;;7.95;100.00
1616;BME280;801;47.982;7.810;2023-04-25T05:39:31;98017.31;;;7.98;100.00
1616;BME280;801;47.982;7.810;2023-04-25T05:41:58;98018.31;;;7.92;100.00
1616;BME280;801;47.982;7.810;2023-04-25T05:44:24;98012.91;;;7.82;100.00
1616;BME280;801;47.982;7.810;2023-04-25T05:46:51;98025.63;;;7.69;100.00
1616;BME280;801;47.982;7.810;2023-04-25T05:49:18;98024.16;;;7.52;100.00
1616;BME280;801;47.982;7.810;2023-04-25T05:51:44;98042.09;;;7.56;100.00
1616;BME280;801;47.982;7.810;2023-04-25T05:54:11;98038.09;;;7.26;100.00
1616;BME280;801;47.982;7.810;2023-04-25T05:56:39;98044.03;;;7.34;100.00
1616;BME280;801;47.982;7.810;2023-04-25T05:59:05;98043.13;;;7.23;100.00
1616;BME280;801;47.982;7.810;2023-04-25T06:01:32;98044.75;;;7.24;100.00
1616;BME280;801;47.982;7.810;2023-04-25T06:03:58;98053.72;;;7.40;100.00
1616;BME280;801;47.982;7.810;2023-04-25T06:06:25;98051.69;;;7.25;100.00
1616;BME280;801;47.982;7.810;2023-04-25T06:08:52;98058.88;;;7.19;100.00
1616;BME280;801;47.982;7.810;2023-04-25T06:11:18;98059.34;;;7.43;100.00
1616;BME280;801;47.982;7.810;2023-04-25T06:13:46;98064.31;;;7.30;100.00
1616;BME280;801;47.982;7.810;2023-04-25T06:16:13;98074.16;;;7.24;100.00
1616;BME280;801;47.982;7.810;2023-04-25T06:18:40;98073.59;;;7.22;100.00
1616;BME280;801;47.982;7.810;2023-04-25T06:21:06;98065.41;;;7.34;100.00
1616;BME280;801;47.982;7.810;2023-04-25T06:23:33;98077.31;;;7.21;100.00
1616;BME280;801;47.982;7.810;2023-04-25T06:25:59;98081.91;;;7.25;100.00
1616;BME280;801;47.982;7.810;2023-04-25T06:28:26;98079.13;;;7.15;100.00
1616;BME280;801;47.982;7.810;2023-04-25T06:30:54;98067.81;;;7.30;100.00
1616;BME280;801;47.982;7.810;2023-04-25T06:33:20;98070.00;;;7.38;100.00
1616;BME280;801;47.982;7.810;2023-04-25T06:35:47;98076.72;;;7.41;100.00
1616;BME280;801;47.982;7.810;2023-04-25T06:38:15;98084.88;;;7.83;100.00
1616;BME280;801;47.982;7.810;2023-04-25T06:40:41;98077.78;;;7.40;100.00
1616;BME280;801;47.982;7.810;2023-04-25T06:43:08;98076.94;;;7.61;100.00
1616;BME280;801;47.982;7.810;2023-04-25T06:45:34;98081.75;;;7.64;100.00
1616;BME280;801;47.982;7.810;2023-04-25T06:48:02;98079.63;;;7.99;100.00
1616;BME280;801;47.982;7.810;2023-04-25T06:50:29;98082.47;;;7.82;100.00
1616;BME280;801;47.982;7.810;2023-04-25T06:52:55;98088.81;;;7.76;100.00
1616;BME280;801;47.982;7.810;2023-04-25T06:55:22;98093.19;;;7.87;100.00
1616;BME280;801;47.982;7.810;2023-04-25T06:57:48;98099.00;;;7.79;100.00
1616;BME280;801;47.982;7.810;2023-04-25T07:00:16;98094.28;;;7.59;100.00
1616;BME280;801;47.982;7.810;2023-04-25T07:02:42;98098.72;;;7.48;100.00
1616;BME280;801;47.982;7.810;2023-04-25T07:05:10;98109.03;;;7.61;100.00
1616;BME280;801;47.982;7.810;2023-04-25T07:07:37;98117.50;;;7.53;100.00
1616;BME280;801;47.982;7.810;2023-04-25T07:10:04;98115.38;;;7.55;100.00
1616;BME280;801;47.982;7.810;2023-04-25T07:12:31;98117.56;;;7.63;100.00
1616;BME280;801;47.982;7.810;2023-04-25T07:14:57;98127.63;;;7.78;100.00
1616;BME280;801;47.982;7.810;2023-04-25T07:17:24;98124.34;;;7.71;100.00
1616;BME280;801;47.982;7.810;2023-04-25T07:19:50;98125.16;;;7.72;100.00
1616;BME280;801;47.982;7.810;2023-04-25T07:22:18;98131.97;;;7.84;100.00
1616;BME280;801;47.982;7.810;2023-04-25T07:24:45;98133.22;;;7.77;100.00
1616;BME280;801;47.982;7.810;2023-04-25T07:27:13;98134.25;;;7.71;100.00
1616;BME280;801;47.982;7.810;2023-04-25T07:29:40;98130.75;;;7.70;100.00
1616;BME280;801;47.982;7.810;2023-04-25T07:32:07;98132.94;;;7.73;100.00
1616;BME280;801;47.982;7.810;2023-04-25T07:34:33;98140.56;;;7.86;100.00
1616;BME280;801;47.982;7.810;2023-04-25T07:37:02;98147.66;;;7.76;100.00
1616;BME280;801;47.982;7.810;2023-04-25T07:39:30;98148.38;;;7.93;100.00
1616;BME280;801;47.982;7.810;2023-04-25T07:41:57;98146.06;;;8.07;100.00
1616;BME280;801;47.982;7.810;2023-04-25T07:44:25;98158.72;;;8.17;100.00
1616;BME280;801;47.982;7.810;2023-04-25T07:46:52;98157.75;;;7.96;100.00
1616;BME280;801;47.982;7.810;2023-04-25T07:49:18;98167.53;;;7.85;100.00
1616;BME280;801;47.982;7.810;2023-04-25T07:51:45;98175.81;;;8.10;100.00
1616;BME280;801;47.982;7.810;2023-04-25T07:54:14;98175.88;;;8.16;100.00
1616;BME280;801;47.982;7.810;2023-04-25T07:56:42;98174.28;;;8.20;100.00
1616;BME280;801;47.982;7.810;2023-04-25T07:59:08;98184.59;;;8.33;100.00
1616;BME280;801;47.982;7.810;2023-04-25T08:01:35;98190.63;;;8.50;100.00
1616;BME280;801;47.982;7.810;2023-04-25T08:04:02;98189.94;;;8.33;100.00
1616;BME280;801;47.982;7.810;2023-04-25T08:06:28;98205.09;;;8.49;100.00
1616;BME280;801;47.982;7.810;2023-04-25T08:08:56;98203.28;;;8.60;100.00
1616;BME280;801;47.982;7.810;2023-04-25T08:11:23;98212.00;;;8.78;100.00
1616;BME280;801;47.982;7.810;2023-04-25T08:13:51;98203.09;;;8.72;100.00
1616;BME280;801;47.982;7.810;2023-04-25T08:16:18;98210.34;;;8.71;100.00
1616;BME280;801;47.982;7.810;2023-04-25T08:18:44;98215.38;;;8.68;100.00
1616;BME280;801;47.982;7.810;2023-04-25T08:21:11;98222.38;;;8.69;100.00
1616;BME280;801;47.982;7.810;2023-04-25T08:23:37;98218.97;;;8.79;100.00
1616;BME280;801;47.982;7.810;2023-04-25T08:26:05;98224.00;;;8.75;100.00
1616;BME280;801;47.982;7.810;2023-04-25T08:28:31;98232.31;;;8.73;100.00
1616;BME280;801;47.982;7.810;2023-04-25T08:30:59;98235.59;;;8.86;100.00
1616;BME280;801;47.982;7.810;2023-04-25T08:33:25;98237.25;;;8.55;100.00
1616;BME280;801;47.982;7.810;2023-04-25T08:35:52;98246.16;;;8.33;100.00
1616;BME280;801;47.982;7.810;2023-04-25T08:38:19;98242.66;;;8.60;100.00
1616;BME280;801;47.982;7.810;2023-04-25T08:40:49;98252.41;;;8.71;100.00
1616;BME280;801;47.982;7.810;2023-04-25T08:43:18;98249.09;;;8.64;100.00
1616;BME280;801;47.982;7.810;2023-04-25T08:45:46;98247.78;;;9.04;100.00
1616;BME280;801;47.982;7.810;2023-04-25T08:48:16;98257.81;;;8.81;100.00
1616;BME280;801;47.982;7.810;2023-04-25T08:50:45;98256.94;;;9.08;100.00
1616;BME280;801;47.982;7.810;2023-04-25T08:53:16;98255.75;;;8.56;100.00
1616;BME280;801;47.982;7.810;2023-04-25T08:55:45;98268.88;;;8.90;100.00
1616;BME280;801;47.982;7.810;2023-04-25T08:58:12;98271.88;;;8.99;100.00
1616;BME280;801;47.982;7.810;2023-04-25T09:00:39;98272.41;;;8.96;100.00
1616;BME280;801;47.982;7.810;2023-04-25T09:03:06;98278.03;;;8.99;100.00
1616;BME280;801;47.982;7.810;2023-04-25T09:05:35;98272.56;;;9.21;100.00
1616;BME280;801;47.982;7.810;2023-04-25T09:08:02;98282.06;;;9.02;100.00
1616;BME280;801;47.982;7.810;2023-04-25T09:10:28;98278.16;;;8.77;100.00
1616;BME280;801;47.982;7.810;2023-04-25T09:13:05;98279.38;;;8.97;100.00
1616;BME280;801;47.982;7.810;2023-04-25T09:15:46;98289.53;;;9.37;100.00
1616;BME280;801;47.982;7.810;2023-04-25T09:18:13;98287.72;;;9.48;100.00
1616;BME280;801;47.982;7.810;2023-04-25T09:20:43;98292.63;;;9.56;100.00
1616;BME280;801;47.982;7.810;2023-04-25T09:23:09;98300.91;;;9.54;100.00
1616;BME280;801;47.982;7.810;2023-04-25T09:25:36;98303.47;;;9.34;100.00
1616;BME280;801;47.982;7.810;2023-04-25T09:28:05;98312.84;;;9.31;100.00
1616;BME280;801;47.982;7.810;2023-04-25T09:30:33;98305.91;;;9.35;100.00
1616;BME280;801;47.982;7.810;2023-04-25T09:33:10;98310.84;;;9.54;100.00
1616;BME280;801;47.982;7.810;2023-04-25T09:35:38;98307.13;;;9.65;100.00
1616;BME280;801;47.982;7.810;2023-04-25T09:38:10;98312.59;;;9.81;100.00
1616;BME280;801;47.982;7.810;2023-04-25T09:40:41;98313.72;;;10.00;100.00
1616;BME280;801;47.982;7.810;2023-04-25T09:43:18;98323.00;;;9.72;100.00
1616;BME280;801;47.982;7.810;2023-04-25T09:45:45;98326.63;;;10.08;100.00
1616;BME280;801;47.982;7.810;2023-04-25T09:48:16;98327.31;;;10.41;100.00
1616;BME280;801;47.982;7.810;2023-04-25T09:50:43;98327.31;;;10.46;100.00
1616;BME280;801;47.982;7.810;2023-04-25T09:53:11;98335.28;;;10.21;100.00
1616;BME280;801;47.982;7.810;2023-04-25T09:55:38;98336.88;;;10.22;100.00
1616;BME280;801;47.982;7.810;2023-04-25T09:58:06;98339.16;;;10.50;100.00
1616;BME280;801;47.982;7.810;2023-04-25T10:00:34;98348.00;;;10.41;100.00
1616;BME280;801;47.982;7.810;2023-04-25T10:03:01;98339.94;;;10.51;100.00
1616;BME280;801;47.982;7.810;2023-04-25T10:05:30;98340.75;;;10.51;100.00
1616;BME280;801;47.982;7.810;2023-04-25T10:07:59;98338.59;;;10.48;100.00
1616;BME280;801;47.982;7.810;2023-04-25T10:10:27;98349.91;;;10.61;100.00
1616;BME280;801;47.982;7.810;2023-04-25T10:12:54;98342.94;;;10.70;100.00
1616;BME280;801;47.982;7.810;2023-04-25T10:15:21;98348.84;;;10.77;100.00
1616;BME280;801;47.982;7.810;2023-04-25T10:17:49;98341.91;;;10.96;100.00
1616;BME280;801;47.982;7.810;2023-04-25T10:20:16;98349.41;;;10.84;100.00
1616;BME280;801;47.982;7.810;2023-04-25T10:22:44;98339.72;;;10.88;100.00
1616;BME280;801;47.982;7.810;2023-04-25T10:25:14;98337.06;;;10.98;100.00
1616;BME280;801;47.982;7.810;2023-04-25T10:27:43;98339.44;;;11.41;100.00
1616;BME280;801;47.982;7.810;2023-04-25T10:30:13;98331.94;;;10.82;100.00
1616;BME280;801;47.982;7.810;2023-04-25T10:32:41;98336.25;;;11.08;100.00
1616;BME280;801;47.982;7.810;2023-04-25T10:35:13;98339.16;;;11.42;100.00
1616;BME280;801;47.982;7.810;2023-04-25T10:37:59;98332.91;;;11.73;100.00
1616;BME280;801;47.982;7.810;2023-04-25T10:40:26;98337.31;;;12.23;100.00
1616;BME280;801;47.982;7.810;2023-04-25T10:42:54;98334.69;;;12.03;100.00
1616;BME280;801;47.982;7.810;2023-04-25T10:45:22;98338.00;;;11.79;100.00
1616;BME280;801;47.982;7.810;2023-04-25T10:47:49;98337.00;;;11.55;100.00
1616;BME280;801;47.982;7.810;2023-04-25T10:50:15;98339.44;;;11.46;100.00
1616;BME280;801;47.982;7.810;2023-04-25T10:52:42;98339.44;;;11.36;100.00
1616;BME280;801;47.982;7.810;2023-04-25T10:55:09;98336.38;;;11.78;100.00
1616;BME280;801;47.982;7.810;2023-04-25T10:57:40;98339.09;;;11.73;100.00
1616;BME280;801;47.982;7.810;2023-04-25T11:00:12;98342.59;;;11.79;100.00
1616;BME280;801;47.982;7.810;2023-04-25T11:02:44;98345.53;;;11.88;100.00
1616;BME280;801;47.982;7.810;2023-04-25T11:05:19;98337.16;;;11.94;100.00
1616;BME280;801;47.982;7.810;2023-04-25T11:07:49;98347.06;;;12.09;100.00
1616;BME280;801;47.982;7.810;2023-04-25T11:10:17;98344.44;;;11.99;100.00
1616;BME280;801;47.982;7.810;2023-04-25T11:12:45;98340.09;;;11.98;100.00
1616;BME280;801;47.982;7.810;2023-04-25T11:15:13;98335.69;;;12.67;100.00
1616;BME280;801;47.982;7.810;2023-04-25T11:17:40;98338.19;;;13.27;100.00
1616;BME280;801;47.982;7.810;2023-04-25T11:20:07;98342.91;;;12.82;100.00
1616;BME280;801;47.982;7.810;2023-04-25T11:22:37;98340.53;;;12.70;100.00
1616;BME280;801;47.982;7.810;2023-04-25T11:25:08;98342.81;;;12.53;100.00
1616;BME280;801;47.982;7.810;2023-04-25T11:27:37;98342.78;;;12.08;100.00
1616;BME280;801;47.982;7.810;2023-04-25T11:30:14;98335.03;;;11.91;100.00
1616;BME280;801;47.982;7.810;2023-04-25T11:32:41;98343.38;;;11.79;100.00
1616;BME280;801;47.982;7.810;2023-04-25T11:35:08;98335.81;;;11.92;100.00
1616;BME280;801;47.982;7.810;2023-04-25T11:37:35;98343.66;;;11.78;100.00
1616;BME280;801;47.982;7.810;2023-04-25T11:40:02;98339.69;;;11.55;100.00
1616;BME280;801;47.982;7.810;2023-04-25T11:42:31;98347.22;;;11.48;100.00
1616;BME280;801;47.982;7.810;2023-04-25T11:44:58;98348.31;;;11.00;100.00
1616;BME280;801;47.982;7.810;2023-04-25T11:47:29;98353.13;;;10.47;100.00
1616;BME280;801;47.982;7.810;2023-04-25T11:49:57;98356.94;;;10.72;100.00
1616;BME280;801;47.982;7.810;2023-04-25T11:52:24;98347.50;;;10.69;100.00
1616;BME280;801;47.982;7.810;2023-04-25T11:54:50;98350.72;;;10.71;100.00
1616;BME280;801;47.982;7.810;2023-04-25T11:57:19;98356.63;;;10.68;100.00
1616;BME280;801;47.982;7.810;2023-04-25T11:59:45;98351.84;;;11.06;100.00
1616;BME280;801;47.982;7.810;2023-04-25T12:02:23;98346.59;;;11.81;100.00
1616;BME280;801;47.982;7.810;2023-04-25T12:04:51;98343.34;;;12.00;100.00
1616;BME280;801;47.982;7.810;2023-04-25T12:07:18;98352.84;;;12.37;100.00
1616;BME280;801;47.982;7.810;2023-04-25T12:09:51;98343.47;;;13.08;100.00
1616;BME280;801;47.982;7.810;2023-04-25T12:12:18;98352.63;;;13.12;100.00
1616;BME280;801;47.982;7.810;2023-04-25T12:14:46;98345.34;;;13.47;100.00
1616;BME280;801;47.982;7.810;2023-04-25T12:17:13;98355.88;;;13.43;100.00
1616;BME280;801;47.982;7.810;2023-04-25T12:19:40;98346.56;;;13.84;100.00
1616;BME280;801;47.982;7.810;2023-04-25T12:22:21;98348.72;;;14.30;100.00
1616;BME280;801;47.982;7.810;2023-04-25T12:24:48;98350.81;;;14.14;100.00
1616;BME280;801;47.982;7.810;2023-04-25T12:27:15;98346.13;;;14.63;100.00
1616;BME280;801;47.982;7.810;2023-04-25T12:29:50;98352.00;;;14.27;99.19
1616;BME280;801;47.982;7.810;2023-04-25T12:32:17;98346.22;;;15.42;100.00
1616;BME280;801;47.982;7.810;2023-04-25T12:34:44;98345.28;;;15.93;96.75
1616;BME280;801;47.982;7.810;2023-04-25T12:37:11;98351.56;;;15.14;89.88
1616;BME280;801;47.982;7.810;2023-04-25T12:39:39;98338.75;;;16.72;98.56
1616;BME280;801;47.982;7.810;2023-04-25T12:42:06;98345.72;;;16.51;88.34
1616;BME280;801;47.982;7.810;2023-04-25T12:44:33;98347.53;;;14.60;92.03
1616;BME280;801;47.982;7.810;2023-04-25T12:46:59;98346.84;;;14.49;92.19
1616;BME280;801;47.982;7.810;2023-04-25T12:49:26;98353.38;;;15.19;92.31
1616;BME280;801;47.982;7.810;2023-04-25T12:51:52;98356.72;;;14.59;91.47
1616;BME280;801;47.982;7.810;2023-04-25T12:54:19;98343.69;;;15.92;89.07
1616;BME280;801;47.982;7.810;2023-04-25T12:56:46;98344.59;;;16.66;84.54
1616;BME280;801;47.982;7.810;2023-04-25T12:59:13;98352.44;;;16.53;83.20
1616;BME280;801;47.982;7.810;2023-04-25T13:01:40;98351.06;;;16.42;79.20
1616;BME280;801;47.982;7.810;2023-04-25T13:04:07;98350.81;;;16.02;79.94
1616;BME280;801;47.982;7.810;2023-04-25T13:06:33;98355.63;;;14.79;79.57
1616;BME280;801;47.982;7.810;2023-04-25T13:09:00;98356.88;;;14.68;85.71
1616;BME280;801;47.982;7.810;2023-04-25T13:11:27;98358.84;;;14.62;83.08
1616;BME280;801;47.982;7.810;2023-04-25T13:13:55;98352.28;;;14.25;83.83
1616;BME280;801;47.982;7.810;2023-04-25T13:16:22;98356.59;;;14.26;86.81
1616;BME280;801;47.982;7.810;2023-04-25T13:18:48;98357.44;;;14.03;85.91
1616;BME280;801;47.982;7.810;2023-04-25T13:21:15;98351.28;;;13.73;87.42
1616;BME280;801;47.982;7.810;2023-04-25T13:23:41;98355.06;;;13.72;88.90
1616;BME280;801;47.982;7.810;2023-04-25T13:26:09;98353.38;;;14.24;88.66
1616;BME280;801;47.982;7.810;2023-04-25T13:28:36;98349.84;;;15.51;84.45